Time;durP1;ratioP1;P1;durP2;ratioP2;P2;SDS_P1;SDS_P2;PMS_P1;PMS_P2;Temp;Humidity;BMP_temperature;BMP_pressure;BME280_temperature;BME280_humidity;BME280_pressure;Samples;Min_cycle;Max_cycle;Signal;HPM_P1;HPM_P2
2021/05/01 00:02:13;;;;;;;52.92;29.63;;;6.70;99.90;;;7.96;82.52;100337.50;6196947;23;20067;-85
2021/05/01 00:04:38;;;;;;;48.17;28.58;;;6.70;99.90;;;7.91;82.44;100332.19;6168899;23;20017;-85
2021/05/01 00:07:05;;;;;;;53.08;29.45;;;6.60;99.90;;;7.96;82.62;100336.72;6158880;23;20012;-85
2021/05/01 00:09:31;;;;;;;40.45;25.65;;;6.70;99.90;;;7.96;82.34;100329.16;6185720;23;20533;-84
2021/05/01 00:11:57;;;;;;;47.20;26.67;;;6.60;99.90;;;8.00;82.40;100331.25;6187247;23;20005;-85
2021/05/01 00:14:27;;;;;;;44.90;27.92;;;6.60;99.90;;;8.00;82.57;100325.69;6160569;23;20330;-84
2021/05/01 00:16:56;;;;;;;43.97;26.52;;;6.70;99.90;;;8.03;82.56;100330.59;6160381;23;20005;-84
2021/05/01 00:19:22;;;;;;;44.55;26.50;;;6.70;99.90;;;8.07;82.15;100323.97;6161745;23;20005;-85
2021/05/01 00:21:49;;;;;;;50.85;28.25;;;6.70;99.90;;;8.09;82.48;100329.97;6160453;23;20085;-83
2021/05/01 00:24:15;;;;;;;45.40;27.83;;;6.70;99.90;;;8.10;82.61;100326.03;6186386;23;20009;-84
2021/05/01 00:26:41;;;;;;;46.35;28.88;;;6.80;99.90;;;8.13;82.51;100332.88;6159908;23;20032;-86
2021/05/01 00:29:07;;;;;;;48.33;28.33;;;6.80;99.90;;;8.12;82.86;100323.75;6186415;23;20001;-86
2021/05/01 00:31:35;;;;;;;43.13;26.67;;;6.80;99.90;;;8.15;83.32;100327.78;6160243;23;19996;-84
2021/05/01 00:34:03;;;;;;;53.55;30.88;;;6.80;99.90;;;8.15;83.66;100316.66;6187012;23;20001;-84
2021/05/01 00:36:30;;;;;;;45.72;28.00;;;6.80;99.90;;;8.15;83.52;100322.22;6186937;23;20016;-86
2021/05/01 00:38:56;;;;;;;48.33;29.35;;;6.80;99.90;;;8.14;83.99;100324.19;6186486;23;20421;-84
2021/05/01 00:41:23;;;;;;;49.83;29.00;;;6.80;99.90;;;8.15;83.81;100323.03;6160619;23;20017;-86
2021/05/01 00:43:50;;;;;;;50.65;30.05;;;6.80;99.90;;;8.11;83.60;100324.06;6188628;23;20016;-84
2021/05/01 00:46:16;;;;;;;48.95;28.45;;;6.80;99.90;;;8.10;83.95;100325.22;6189708;23;20012;-83
2021/05/01 00:48:41;;;;;;;48.05;28.35;;;6.70;99.90;;;8.08;84.16;100320.03;6163744;23;20035;-85
2021/05/01 00:51:08;;;;;;;52.97;32.58;;;6.70;99.90;;;8.07;84.82;100323.13;6189895;23;20001;-85
2021/05/01 00:53:34;;;;;;;53.95;32.22;;;6.70;99.90;;;8.05;84.70;100311.56;6190095;23;20012;-85
2021/05/01 00:56:01;;;;;;;55.25;33.15;;;6.80;99.90;;;8.14;84.85;100310.28;6191175;23;20359;-81
2021/05/01 00:58:27;;;;;;;55.33;33.75;;;6.80;99.90;;;8.17;84.92;100314.31;6165359;23;20016;-82
2021/05/01 01:01:16;;;;;;;55.92;33.85;;;6.80;99.90;;;8.17;85.25;100306.78;6191390;23;20005;-81
2021/05/01 01:03:43;;;;;;;50.38;31.67;;;6.90;99.90;;;8.21;84.99;100316.06;6164754;23;20374;-81
2021/05/01 01:06:10;;;;;;;56.63;32.83;;;6.90;99.90;;;8.26;84.71;100304.69;6191425;23;20015;-84
2021/05/01 01:08:36;;;;;;;56.00;33.05;;;6.90;99.90;;;8.23;84.58;100307.34;6191383;23;20001;-82
2021/05/01 01:11:04;;;;;;;55.38;32.45;;;6.90;99.90;;;8.25;84.67;100302.28;6190860;23;20045;-82
2021/05/01 01:13:30;;;;;;;53.70;32.70;;;7.00;99.90;;;8.22;84.84;100302.97;6164926;23;20009;-81
2021/05/01 01:15:56;;;;;;;59.25;34.85;;;7.00;99.90;;;8.21;84.75;100298.56;6164795;23;20005;-80
2021/05/01 01:18:22;;;;;;;61.85;34.35;;;7.00;99.90;;;8.26;84.63;100301.09;6165564;23;20017;-82
2021/05/01 01:20:48;;;;;;;60.53;33.65;;;7.00;99.90;;;8.28;84.73;100307.94;6164639;23;20366;-82
2021/05/01 01:23:17;;;;;;;54.55;33.38;;;7.00;99.90;;;8.28;84.51;100299.59;6191842;23;20013;-81
2021/05/01 01:25:43;;;;;;;57.10;36.35;;;7.00;99.90;;;8.32;84.36;100306.09;6192368;23;20009;-82
2021/05/01 01:28:09;;;;;;;52.88;33.78;;;7.00;99.90;;;8.32;84.22;100308.88;6165932;23;20390;-82
2021/05/01 01:30:35;;;;;;;58.55;35.03;;;7.00;99.90;;;8.34;84.25;100305.75;6192537;23;20012;-84
2021/05/01 01:33:09;;;;;;;60.38;35.30;;;7.00;99.90;;;8.37;84.34;100314.22;6189766;23;20031;-84
2021/05/01 01:35:38;;;;;;;55.42;32.95;;;7.00;99.90;;;8.40;84.21;100309.91;6163337;23;20431;-81
2021/05/01 01:38:06;;;;;;;56.33;32.80;;;7.00;99.90;;;8.37;84.42;100310.63;6165266;23;20414;-81
2021/05/01 01:40:39;;;;;;;56.60;35.22;;;7.00;99.90;;;8.39;84.39;100317.44;6189482;23;20077;-83
2021/05/01 01:43:05;;;;;;;59.75;37.10;;;7.00;99.90;;;8.37;85.06;100303.09;6191639;23;20058;-82
2021/05/01 01:45:32;;;;;;;63.42;36.92;;;7.00;99.90;;;8.39;85.54;100311.06;6164628;23;20009;-82
2021/05/01 01:47:59;;;;;;;58.97;38.55;;;7.10;99.90;;;8.43;85.28;100315.59;6191247;23;20005;-82
2021/05/01 01:50:28;;;;;;;66.35;38.35;;;7.10;99.90;;;8.46;85.80;100308.50;6191552;23;20001;-83
2021/05/01 01:52:56;;;;;;;63.58;38.92;;;7.10;99.90;;;8.51;85.50;100321.38;6192127;23;20005;-81
2021/05/01 01:55:24;;;;;;;62.70;38.72;;;7.10;99.90;;;8.53;85.93;100313.47;6191836;23;20405;-80
2021/05/01 01:57:52;;;;;;;66.35;39.83;;;7.20;99.90;;;8.43;87.14;100318.38;6164554;23;20012;-82
2021/05/01 02:00:26;;;;;;;63.88;39.53;;;7.20;99.90;;;8.51;86.46;100318.59;6165279;23;20004;-84
2021/05/01 02:02:53;;;;;;;67.90;42.25;;;7.20;99.90;;;8.54;86.43;100318.66;6164222;23;20009;-83
2021/05/01 02:05:19;;;;;;;67.07;40.08;;;7.20;99.90;;;8.53;86.29;100319.84;6191286;23;20087;-84
2021/05/01 02:07:47;;;;;;;65.75;39.90;;;7.20;99.90;;;8.55;86.48;100320.31;6190850;23;20020;-83
2021/05/01 02:10:15;;;;;;;64.63;39.63;;;7.20;99.90;;;8.46;86.65;100319.63;6164246;23;20013;-81
2021/05/01 02:12:43;;;;;;;62.92;38.92;;;7.20;99.90;;;8.51;86.73;100318.59;6163867;23;20005;-83
2021/05/01 02:15:20;;;;;;;65.93;41.03;;;7.20;99.90;;;8.52;86.38;100318.22;6166331;23;20005;-84
2021/05/01 02:17:55;;;;;;;70.45;40.75;;;7.20;99.90;;;8.54;86.79;100320.66;6199483;23;20378;-83
2021/05/01 02:20:34;;;;;;;65.07;39.95;;;7.20;99.90;;;8.55;86.53;100316.69;6167627;23;20009;-82
2021/05/01 02:23:03;;;;;;;66.63;41.38;;;7.20;99.90;;;8.48;87.15;100329.25;6191765;23;20036;-82
2021/05/01 02:25:30;;;;;;;61.97;39.17;;;7.20;99.90;;;8.50;87.01;100323.34;6164065;23;20343;-81
2021/05/01 02:27:56;;;;;;;70.93;42.78;;;7.20;99.90;;;8.50;87.37;100328.09;6190613;23;20075;-82
2021/05/01 02:30:28;;;;;;;70.47;42.90;;;7.20;99.90;;;8.55;87.18;100320.31;6190864;23;20009;-85
2021/05/01 02:32:57;;;;;;;69.85;40.88;;;7.20;99.90;;;8.56;87.25;100324.72;6162163;23;20103;-82
2021/05/01 02:35:30;;;;;;;73.50;43.88;;;7.20;99.90;;;8.57;87.32;100329.13;6188487;23;20017;-82
2021/05/01 02:37:56;;;;;;;65.95;42.38;;;7.20;99.90;;;8.59;86.99;100312.88;6162488;23;20334;-83
2021/05/01 02:40:24;;;;;;;71.07;43.58;;;7.20;99.90;;;8.58;87.16;100305.69;6189013;23;20013;-83
2021/05/01 02:42:51;;;;;;;66.78;41.72;;;7.20;99.90;;;8.63;87.26;100319.34;6186482;23;21424;-84
2021/05/01 02:45:19;;;;;;;68.80;42.80;;;7.20;99.90;;;8.63;87.27;100316.56;6163256;23;20017;-84
2021/05/01 02:47:47;;;;;;;73.07;44.72;;;7.20;99.90;;;8.61;87.70;100318.06;6187395;23;20069;-82
2021/05/01 02:50:16;;;;;;;86.90;49.25;;;7.30;99.90;;;8.53;88.71;100308.72;6186739;23;20009;-80
2021/05/01 02:52:43;;;;;;;89.60;50.03;;;7.30;99.90;;;8.68;88.57;100310.75;6161842;23;20009;-82
2021/05/01 02:55:11;;;;;;;95.88;52.03;;;7.40;99.90;;;8.66;89.11;100312.28;6188301;23;20008;-81
2021/05/01 02:57:38;;;;;;;102.55;52.88;;;7.40;99.90;;;8.74;89.03;100306.53;6161754;23;20016;-83
2021/05/01 03:00:12;;;;;;;96.18;51.88;;;7.40;99.90;;;8.82;88.61;100302.81;6161541;23;20009;-84
2021/05/01 03:02:38;;;;;;;109.38;55.58;;;7.50;99.90;;;8.79;89.33;100309.09;6161108;23;20009;-83
2021/05/01 03:05:07;;;;;;;117.32;58.20;;;7.50;99.90;;;8.78;89.58;100310.25;6186319;23;20024;-82
2021/05/01 03:07:35;;;;;;;116.10;55.47;;;7.50;99.90;;;8.84;89.46;100302.44;6161395;23;20389;-84
2021/05/01 03:10:24;;;;;;;129.50;58.92;;;7.50;99.90;;;8.89;89.04;100302.22;6188568;23;20005;-81
2021/05/01 03:12:54;;;;;;;120.43;57.78;;;7.60;99.90;;;8.90;89.11;100301.03;6188137;23;20005;-82
2021/05/01 03:15:23;;;;;;;121.82;55.88;;;7.50;99.90;;;8.89;88.95;100302.22;6160986;23;20353;-81
2021/05/01 03:17:50;;;;;;;117.30;58.97;;;7.50;99.90;;;8.75;89.36;100297.03;6188145;23;20009;-84
2021/05/01 03:20:17;;;;;;;123.10;59.33;;;7.60;99.90;;;8.60;89.41;100291.41;6188107;23;20083;-82
2021/05/01 03:22:47;;;;;;;114.32;55.78;;;7.50;99.90;;;8.73;89.04;100295.78;6188041;23;20059;-81
2021/05/01 03:25:16;;;;;;;114.13;57.28;;;7.40;99.90;;;8.72;88.78;100297.75;6188077;23;20384;-83
2021/05/01 03:27:43;;;;;;;108.47;54.97;;;7.40;99.90;;;8.59;89.09;100298.13;6187698;23;20324;-85
2021/05/01 03:30:15;;;;;;;105.40;53.22;;;7.30;99.90;;;8.57;89.03;100297.69;6161374;23;20312;-85
2021/05/01 03:32:42;;;;;;;107.70;53.92;;;7.30;99.90;;;8.57;88.83;100300.47;6185819;23;20009;-84
2021/05/01 03:35:12;;;;;;;114.07;57.55;;;7.20;99.90;;;8.56;89.37;100301.63;6161188;23;20015;-85
2021/05/01 03:38:06;;;;;;;113.57;55.65;;;7.20;99.90;;;8.44;89.65;100296.91;6188127;23;20005;-83
2021/05/01 03:40:32;;;;;;;110.20;53.22;;;7.20;99.90;;;8.48;89.73;100306.97;6170026;23;20013;-84
2021/05/01 03:42:58;;;;;;;105.65;54.38;;;7.20;99.90;;;8.44;89.87;100300.50;6192527;23;20013;-80
2021/05/01 03:45:24;;;;;;;105.93;53.70;;;7.20;99.90;;;8.48;89.56;100300.59;6207230;23;20005;-82
2021/05/01 03:47:52;;;;;;;102.68;53.55;;;7.10;99.90;;;8.47;89.69;100301.78;6207698;23;20307;-83
2021/05/01 03:50:18;;;;;;;93.32;51.15;;;7.20;99.90;;;8.58;89.36;100308.47;6174969;23;20342;-85
2021/05/01 03:52:44;;;;;;;94.30;50.53;;;7.20;99.90;;;8.54;89.08;100293.63;6189996;23;19997;-85
2021/05/01 03:55:11;;;;;;;85.22;49.42;;;7.20;99.90;;;8.51;88.98;100304.69;6162931;23;20025;-83
2021/05/01 03:57:38;;;;;;;89.32;48.17;;;7.10;99.90;;;8.37;88.91;100286.38;6192327;23;20175;-81
2021/05/01 04:00:07;;;;;;;87.45;46.45;;;7.10;99.90;;;8.34;88.78;100295.44;6163712;23;20009;-84
2021/05/01 04:02:33;;;;;;;85.13;47.35;;;7.00;99.90;;;8.16;88.92;100296.81;6164910;23;20009;-83
2021/05/01 04:04:59;;;;;;;84.85;47.33;;;6.90;99.90;;;8.09;88.83;100293.03;6190346;23;20001;-86
2021/05/01 04:07:25;;;;;;;86.53;47.42;;;6.80;99.90;;;7.95;89.08;100298.94;6164151;23;20528;-84
2021/05/01 04:09:51;;;;;;;88.10;47.80;;;6.70;99.90;;;7.87;89.94;100300.69;6189993;23;20001;-85
2021/05/01 04:12:17;;;;;;;89.50;48.90;;;6.60;99.90;;;7.90;89.88;100302.75;6165526;23;20434;-83
2021/05/01 04:14:43;;;;;;;83.68;46.17;;;6.60;99.90;;;7.96;89.82;100303.34;6163658;23;20448;-84
2021/05/01 04:17:09;;;;;;;88.45;48.42;;;6.60;99.90;;;7.94;90.61;100300.09;6163704;23;20013;-84
2021/05/01 04:19:35;;;;;;;86.63;47.92;;;6.60;99.90;;;8.04;90.47;100301.59;6194579;23;20017;-84
2021/05/01 04:22:05;;;;;;;89.63;48.35;;;6.70;99.90;;;8.11;90.54;100305.41;6163553;23;20139;-83
2021/05/01 04:24:32;;;;;;;93.35;50.50;;;6.70;99.90;;;8.14;90.59;100306.69;6189701;23;20059;-82
2021/05/01 04:27:00;;;;;;;93.30;49.70;;;6.80;99.90;;;8.20;90.70;100319.19;6190149;23;20330;-84
2021/05/01 04:29:27;;;;;;;92.75;48.88;;;6.90;99.90;;;8.30;90.56;100311.22;6190429;23;20001;-80
2021/05/01 04:31:53;;;;;;;89.78;49.80;;;6.90;99.90;;;8.39;90.12;100320.22;6166648;23;20020;-83
2021/05/01 04:34:19;;;;;;;84.65;45.90;;;7.00;99.90;;;8.45;89.63;100318.00;6192493;23;20009;-85
2021/05/01 04:36:45;;;;;;;88.25;46.83;;;7.00;99.90;;;8.44;89.95;100319.19;6189047;23;20097;-84
2021/05/01 04:39:13;;;;;;;87.65;47.63;;;7.10;99.90;;;8.53;89.68;100328.19;6162007;23;20047;-85
2021/05/01 04:41:40;;;;;;;82.32;46.70;;;7.10;99.90;;;8.52;89.40;100329.34;6190962;23;19993;-82
2021/05/01 04:44:06;;;;;;;78.65;46.42;;;7.20;99.90;;;8.53;89.29;100322.63;6196558;23;20012;-80
2021/05/01 04:46:32;;;;;;;81.00;46.47;;;7.20;99.90;;;8.54;89.30;100332.59;6191453;23;20019;-82
2021/05/01 04:48:58;;;;;;;78.05;44.90;;;7.20;99.90;;;8.61;88.59;100327.25;6176581;23;20071;-83
2021/05/01 04:51:25;;;;;;;77.57;45.13;;;7.20;99.90;;;8.59;88.60;100335.16;6206029;23;20272;-82
2021/05/01 04:53:51;;;;;;;70.72;42.13;;;7.20;99.90;;;8.63;88.45;100341.63;6201493;23;20001;-83
2021/05/01 04:56:17;;;;;;;77.50;45.92;;;7.20;99.90;;;8.53;88.64;100342.13;6176710;23;20116;-80
2021/05/01 04:58:43;;;;;;;74.93;42.83;;;7.20;99.90;;;8.62;88.42;100344.75;6195880;23;20080;-82
2021/05/01 05:01:09;;;;;;;72.25;43.83;;;7.20;99.90;;;8.55;88.32;100344.53;6162375;23;20013;-84
2021/05/01 05:03:38;;;;;;;69.90;42.15;;;7.20;99.90;;;8.66;87.16;100351.25;6189153;23;20032;-85
2021/05/01 05:06:04;;;;;;;68.07;41.88;;;7.20;99.90;;;8.70;86.44;100346.59;6161841;23;20326;-83
2021/05/01 05:08:30;;;;;;;68.90;42.22;;;7.30;99.90;;;8.71;86.25;100348.19;6189077;23;20001;-83
2021/05/01 05:10:55;;;;;;;66.63;42.00;;;7.30;99.90;;;8.74;86.09;100356.66;6162303;23;20032;-83
2021/05/01 05:13:26;;;;;;;67.30;42.25;;;7.40;99.90;;;8.70;85.75;100350.16;6167287;23;20449;-80
2021/05/01 05:15:53;;;;;;;70.35;43.00;;;7.40;99.90;;;8.76;84.80;100350.75;6200647;23;20019;-84
2021/05/01 05:18:20;;;;;;;67.97;42.33;;;7.40;99.90;;;8.85;84.35;100362.56;6189234;23;20089;-82
2021/05/01 05:20:47;;;;;;;69.40;41.15;;;7.50;99.90;;;8.89;84.39;100355.91;6189403;23;20046;-83
2021/05/01 05:23:13;;;;;;;73.10;41.45;;;7.50;99.90;;;8.87;84.38;100358.25;6188868;23;20092;-82
2021/05/01 05:25:39;;;;;;;72.93;41.55;;;7.50;99.90;;;8.97;83.05;100373.66;6189950;23;20108;-84
2021/05/01 05:28:05;;;;;;;72.15;40.78;;;7.50;99.90;;;9.01;82.56;100363.44;6163252;23;20429;-83
2021/05/01 05:30:31;;;;;;;71.18;41.42;;;7.60;99.90;;;9.00;81.63;100370.97;6190421;23;20084;-85
2021/05/01 05:32:57;;;;;;;64.00;38.53;;;7.60;99.90;;;8.92;80.27;100368.34;6197617;23;20005;-82
2021/05/01 05:35:24;;;;;;;65.95;40.13;;;7.60;99.90;;;8.94;79.98;100369.59;6166744;23;20015;-83
2021/05/01 05:37:50;;;;;;;64.25;40.58;;;7.60;99.90;;;9.03;79.48;100375.00;6193907;23;20484;-82
2021/05/01 05:40:16;;;;;;;65.78;39.70;;;7.70;99.90;;;9.01;79.51;100374.56;6166032;23;20020;-84
2021/05/01 05:42:48;;;;;;;62.50;36.38;;;7.70;99.90;;;9.12;79.40;100374.88;6188353;23;20647;-85
2021/05/01 05:45:21;;;;;;;62.22;38.25;;;7.70;99.90;;;9.17;79.25;100378.22;6191635;23;19993;-82
2021/05/01 05:47:47;;;;;;;65.80;37.25;;;7.80;99.90;;;9.24;78.36;100384.00;6189699;23;20013;-84
2021/05/01 05:50:13;;;;;;;57.92;34.05;;;7.80;99.90;;;9.21;76.84;100386.66;6166320;23;20019;-84
2021/05/01 05:52:39;;;;;;;60.22;33.10;;;7.80;99.90;;;9.14;76.96;100389.25;6162474;23;20005;-83
2021/05/01 05:55:15;;;;;;;51.65;31.77;;;7.80;99.90;;;9.28;76.31;100384.09;6193160;23;20020;-81
2021/05/01 05:57:50;;;;;;;;;;;7.90;99.90;;;9.35;75.25;100393.44;6165301;23;20080;-79
2021/05/01 06:00:20;;;;;;;54.25;28.60;;;7.90;99.90;;;9.50;75.05;100387.09;6202608;23;19952;-85
2021/05/01 06:02:47;;;;;;;47.13;28.13;;;8.10;99.90;;;9.64;73.86;100397.81;6201302;23;19993;-82
2021/05/01 06:05:41;;;;;;;46.65;28.27;;;8.20;99.90;;;9.50;74.06;100391.88;6202473;23;20096;-82
2021/05/01 06:08:10;;;;;;;45.95;26.77;;;8.20;99.90;;;9.62;73.15;100394.56;6199159;23;20020;-82
2021/05/01 06:10:43;;;;;;;43.17;29.48;;;8.20;99.90;;;9.63;73.81;100385.06;6173233;23;20092;-82
2021/05/01 06:13:16;;;;;;;43.63;27.95;;;8.20;99.90;;;9.69;74.27;100386.41;6190313;23;20001;-82
2021/05/01 06:15:45;;;;;;;46.63;29.90;;;8.20;99.90;;;9.72;73.89;100387.66;6168122;23;20031;-82
2021/05/01 06:18:21;;;;;;;45.30;28.33;;;8.30;99.90;;;9.97;73.75;100381.56;6160115;23;20013;-83
2021/05/01 06:20:47;;;;;;;45.42;28.45;;;8.40;99.90;;;10.21;72.20;100374.97;6160376;23;20097;-85
2021/05/01 06:23:16;;;;;;;42.05;25.45;;;8.70;99.90;;;10.20;70.08;100380.94;6161127;23;20013;-83
2021/05/01 06:25:45;;;;;;;38.45;25.13;;;8.70;99.90;;;10.52;69.46;100382.50;6191812;23;20017;-86
2021/05/01 06:28:11;;;;;;;40.20;24.63;;;9.00;99.90;;;10.60;68.92;100373.09;6186993;23;20009;-86
2021/05/01 06:30:39;;;;;;;39.80;27.17;;;9.20;99.90;;;10.83;67.86;100382.38;6161749;23;20005;-83
2021/05/01 06:33:10;;;;;;;41.92;26.88;;;9.30;99.90;;;10.83;67.63;100381.56;6186699;23;20001;-82
2021/05/01 06:35:43;;;;;;;40.30;24.92;;;9.40;99.90;;;11.20;66.62;100374.38;6160896;23;20028;-83
2021/05/01 06:38:10;;;;;;;42.97;25.75;;;9.70;99.90;;;11.41;66.04;100379.56;6187468;23;20012;-83
2021/05/01 06:40:48;;;;;;;35.75;23.65;;;9.90;99.90;;;11.39;63.76;100373.56;6162793;23;20024;-80
2021/05/01 06:43:42;;;;;;;39.25;25.10;;;10.00;99.90;;;10.93;66.18;100373.44;6192984;23;20463;-84
2021/05/01 06:46:09;;;;;;;39.05;26.38;;;9.70;99.90;;;10.85;66.73;100368.84;6160790;23;20008;-85
2021/05/01 06:48:36;;;;;;;43.95;27.33;;;9.50;99.90;;;10.76;68.13;100375.81;6187445;23;20485;-84
2021/05/01 06:51:06;;;;;;;44.10;27.35;;;9.40;99.90;;;10.63;68.20;100366.00;6160258;23;20013;-83
2021/05/01 06:53:34;;;;;;;42.20;26.52;;;9.20;99.90;;;10.81;67.68;100367.16;6160425;23;20009;-84
2021/05/01 06:56:04;;;;;;;44.83;27.98;;;9.20;99.90;;;11.02;66.30;100367.63;6185275;23;20088;-83
2021/05/01 06:58:33;;;;;;;45.53;28.70;;;9.40;99.90;;;11.01;66.38;100366.00;6161040;23;20461;-83
2021/05/01 07:01:07;;;;;;;43.13;26.05;;;9.50;99.90;;;10.89;65.76;100361.34;6161111;23;20037;-83
2021/05/01 07:03:41;;;;;;;39.05;25.88;;;9.50;99.90;;;11.34;65.52;100360.69;6187336;23;20350;-85
2021/05/01 07:06:08;;;;;;;42.95;25.40;;;9.70;99.90;;;11.43;64.30;100360.47;6188263;23;20059;-82
2021/05/01 07:08:34;;;;;;;35.13;24.27;;;9.80;99.90;;;11.64;65.02;100369.22;6190135;23;20005;-83
2021/05/01 07:11:05;;;;;;;38.80;24.08;;;9.90;99.90;;;11.70;63.11;100366.94;6163994;23;20069;-82
2021/05/01 07:13:31;;;;;;;37.03;22.98;;;10.00;99.90;;;11.80;63.23;100363.53;6165012;23;20033;-83
2021/05/01 07:16:01;;;;;;;39.97;25.30;;;10.10;99.90;;;11.66;62.80;100372.44;6199245;23;20001;-80
2021/05/01 07:18:31;;;;;;;38.42;23.08;;;10.20;99.90;;;12.13;62.16;100360.91;6177215;23;20012;-82
2021/05/01 07:20:59;;;;;;;39.63;24.50;;;10.60;99.90;;;12.91;60.00;100360.03;6206437;23;20032;-80
2021/05/01 07:23:26;;;;;;;35.70;21.23;;;11.20;99.90;;;13.53;58.59;100363.19;6167157;23;20013;-83
2021/05/01 07:25:53;;;;;;;30.20;21.65;;;11.70;99.90;;;14.04;55.39;100378.13;6163973;23;20024;-82
2021/05/01 07:28:30;;;;;;;32.25;19.50;;;12.10;99.90;;;13.26;56.33;100378.53;6163645;23;20295;-82
2021/05/01 07:31:05;;;;;;;27.50;19.27;;;11.70;99.90;;;12.49;58.23;100365.06;6190427;23;20084;-82
2021/05/01 07:33:55;;;;;;;33.80;19.48;;;11.30;99.90;;;12.21;59.48;100368.22;6188209;23;20092;-83
2021/05/01 07:36:39;;;;;;;33.20;21.13;;;10.80;99.90;;;11.61;62.31;100370.78;6164357;23;20009;-82
2021/05/01 07:39:11;;;;;;;36.25;22.02;;;10.50;99.90;;;12.61;61.32;100374.06;6169569;23;20005;-81
2021/05/01 07:41:45;;;;;;;34.53;21.83;;;11.00;99.90;;;13.58;55.82;100363.66;6190706;23;20036;-83
2021/05/01 07:44:12;;;;;;;28.70;20.08;;;11.80;99.90;;;14.27;53.01;100377.91;6190904;23;20005;-80
2021/05/01 07:46:40;;;;;;;28.58;19.10;;;12.50;99.90;;;14.89;52.21;100369.53;6190027;23;20027;-83
2021/05/01 07:49:09;;;;;;;24.23;17.63;;;13.10;99.90;;;15.36;48.49;100368.50;6191499;23;20068;-82
2021/05/01 07:51:39;;;;;;;29.17;18.63;;;13.60;99.90;;;15.24;47.41;100366.88;6191564;23;20008;-83
2021/05/01 07:54:05;;;;;;;28.25;17.52;;;13.70;94.60;;;15.10;48.08;100366.78;6192085;23;20024;-83
2021/05/01 07:56:32;;;;;;;28.42;20.27;;;13.70;94.40;;;16.27;46.72;100365.03;6167068;23;20005;-84
2021/05/01 07:59:01;;;;;;;27.60;19.63;;;14.30;94.10;;;15.89;46.66;100372.28;6195457;23;20030;-81
2021/05/01 08:01:31;;;;;;;26.20;16.45;;;14.30;92.20;;;14.91;49.49;100369.91;6193557;23;20009;-81
2021/05/01 08:04:01;;;;;;;20.90;15.80;;;13.60;94.60;;;14.37;48.57;100363.19;6163449;23;20028;-83
2021/05/01 08:06:28;;;;;;;26.17;17.17;;;13.10;93.10;;;13.04;53.35;100381.03;6166699;23;20005;-83
2021/05/01 08:08:59;;;;;;;21.60;16.30;;;12.00;99.90;;;12.38;55.07;100378.09;6188647;23;20017;-81
2021/05/01 08:11:25;;;;;;;23.60;16.95;;;11.30;99.90;;;12.26;56.76;100365.13;6190456;23;20005;-82
2021/05/01 08:13:51;;;;;;;21.73;16.23;;;11.00;99.90;;;13.19;54.09;100362.44;6191126;23;20334;-81
2021/05/01 08:16:17;;;;;;;24.67;15.05;;;11.60;99.90;;;14.49;49.39;100364.84;6191027;23;20001;-83
2021/05/01 08:18:44;;;;;;;17.83;13.60;;;12.50;99.90;;;14.07;49.78;100360.50;6164789;23;20039;-82
2021/05/01 08:21:10;;;;;;;19.65;14.10;;;12.50;99.90;;;13.36;50.47;100364.63;6189854;23;20449;-81
2021/05/01 08:23:37;;;;;;;19.27;13.75;;;11.90;99.90;;;12.57;52.80;100370.41;6190279;23;20131;-81
2021/05/01 08:26:07;;;;;;;25.83;14.57;;;11.40;99.90;;;12.43;52.97;100367.38;6189448;23;20040;-81
2021/05/01 08:28:33;;;;;;;17.88;13.40;;;11.10;99.90;;;13.16;52.41;100368.81;6164714;23;20512;-80
2021/05/01 08:30:59;;;;;;;20.85;14.23;;;11.40;99.90;;;13.35;51.51;100376.25;6163903;23;20008;-84
2021/05/01 08:33:25;;;;;;;18.08;13.10;;;11.70;99.90;;;13.28;51.67;100376.16;6163720;23;20040;-81
2021/05/01 08:35:52;;;;;;;22.58;13.82;;;11.80;99.90;;;13.77;51.61;100387.91;6164028;23;20338;-82
2021/05/01 08:38:20;;;;;;;18.38;12.68;;;12.20;99.90;;;14.21;50.07;100394.34;6199094;23;20411;-82
2021/05/01 08:40:49;;;;;;;17.15;11.02;;;12.40;99.90;;;14.14;47.50;100396.28;6202201;23;19993;-82
2021/05/01 08:43:16;;;;;;;18.83;11.07;;;12.50;95.40;;;13.75;48.45;100387.47;6201846;23;20005;-78
2021/05/01 08:45:47;;;;;;;19.88;11.07;;;12.40;94.70;;;13.51;49.27;100391.66;6200953;23;20000;-80
2021/05/01 08:48:15;;;;;;;19.08;10.82;;;12.20;95.50;;;13.89;49.06;100387.63;6173365;23;20017;-84
2021/05/01 08:50:55;;;;;;;13.43;9.85;;;12.50;95.80;;;14.99;46.86;100394.91;6196789;23;19997;-84
2021/05/01 08:53:21;;;;;;;13.20;9.80;;;13.20;93.70;;;14.92;45.10;100394.03;6193281;23;20001;-84
2021/05/01 08:55:48;;;;;;;12.20;8.73;;;13.30;87.40;;;14.39;44.79;100390.88;6165455;23;20025;-82
2021/05/01 08:58:14;;;;;;;11.45;8.35;;;13.10;84.40;;;13.85;47.08;100385.97;6191810;23;20324;-82
2021/05/01 09:00:44;;;;;;;12.45;8.32;;;12.60;88.20;;;13.52;47.92;100384.03;6192121;23;20036;-81
2021/05/01 09:03:13;;;;;;;12.32;8.32;;;12.30;91.00;;;12.88;48.21;100386.03;6192742;23;20001;-81
2021/05/01 09:05:42;;;;;;;13.75;8.00;;;11.80;90.30;;;12.75;49.10;100387.44;6179300;23;20059;-83
2021/05/01 09:08:11;;;;;;;15.05;8.63;;;11.60;93.00;;;13.82;49.00;100381.94;6208389;23;20001;-84
2021/05/01 09:11:07;;;;;;;7.68;6.22;;;12.10;94.40;;;15.64;44.64;100382.69;6181895;23;20093;-84
2021/05/01 09:13:33;;;;;;;12.50;7.78;;;13.20;90.40;;;16.48;40.66;100381.94;6196328;23;20005;-82
2021/05/01 09:16:03;;;;;;;12.98;7.30;;;14.20;78.00;;;16.95;40.55;100380.66;6182694;23;20005;-82
2021/05/01 09:18:55;;;;;;;13.45;7.20;;;15.00;74.80;;;18.03;38.56;100391.00;6205844;23;20005;-86
2021/05/01 09:21:29;;;;;;;9.43;6.63;;;15.90;70.10;;;17.29;37.05;100384.56;6169277;23;20020;-86
2021/05/01 09:23:56;;;;;;;10.45;6.10;;;15.90;62.30;;;16.82;38.65;100385.91;6194247;23;20404;-84
2021/05/01 09:26:42;;;;;;;12.02;6.60;;;15.30;64.60;;;15.48;40.41;100380.22;6167018;23;20019;-84
2021/05/01 09:29:10;;;;;;;8.60;5.93;;;14.40;66.30;;;14.87;41.38;100381.16;6166828;23;20062;-83
2021/05/01 09:31:46;;;;;;;10.05;6.22;;;13.70;68.00;;;14.62;42.93;100383.81;6192596;23;20579;-82
2021/05/01 09:34:12;;;;;;;9.93;7.13;;;13.20;71.00;;;14.78;43.58;100375.06;6167483;23;20016;-81
2021/05/01 09:36:39;;;;;;;8.85;6.10;;;13.40;73.50;;;15.64;42.40;100379.84;6192497;23;20065;-84
2021/05/01 09:39:06;;;;;;;8.88;6.53;;;13.90;73.10;;;16.64;39.11;100378.72;6166665;23;20005;-82
2021/05/01 09:41:44;;;;;;;9.85;6.45;;;14.70;67.90;;;18.02;37.42;100386.56;6192831;23;20024;-82
2021/05/01 09:44:18;;;;;;;7.03;5.75;;;15.50;67.10;;;17.84;35.49;100378.22;6193008;23;20020;-81
2021/05/01 09:46:49;;;;;;;9.18;5.80;;;15.80;60.70;;;16.30;36.64;100376.31;6191789;23;20020;-83
2021/05/01 09:49:24;;;;;;;6.18;5.07;;;15.00;60.10;;;15.41;37.83;100374.53;6190670;23;20398;-81
2021/05/01 09:51:55;;;;;;;8.75;4.95;;;14.20;61.10;;;15.63;37.46;100370.63;6192682;23;20307;-82
2021/05/01 09:54:35;;;;;;;6.85;5.00;;;14.30;61.30;;;16.24;36.89;100377.13;6193485;23;20446;-81
2021/05/01 09:57:09;;;;;;;7.82;5.15;;;14.60;61.10;;;16.94;36.33;100378.22;6166586;23;20497;-83
2021/05/01 09:59:50;;;;;;;8.38;5.15;;;15.00;60.60;;;17.76;35.88;100371.00;6193235;23;20055;-81
2021/05/01 10:02:34;;;;;;;9.02;6.28;;;15.70;60.20;;;18.03;34.94;100369.22;6165874;23;20009;-82
2021/05/01 10:05:12;;;;;;;10.73;6.68;;;16.30;58.30;;;18.93;33.51;100362.31;6194920;23;20012;-85
2021/05/01 10:07:47;;;;;;;13.05;6.47;;;16.80;57.40;;;18.83;32.34;100361.22;6167264;23;20009;-84
2021/05/01 10:10:14;;;;;;;9.27;6.03;;;16.90;55.10;;;18.49;32.96;100353.88;6168177;23;20036;-84
2021/05/01 10:12:43;;;;;;;12.75;6.15;;;16.90;54.70;;;17.21;34.61;100357.56;6193771;23;20342;-84
2021/05/01 10:15:25;;;;;;;6.90;5.30;;;16.30;55.10;;;16.96;35.01;100358.88;6195797;23;20005;-84
2021/05/01 10:17:51;;;;;;;8.10;4.65;;;15.80;55.70;;;17.27;35.03;100353.09;6194164;23;20080;-85
2021/05/01 10:20:21;;;;;;;8.63;5.30;;;15.70;57.00;;;17.19;33.71;100362.00;6161589;23;20016;-88